Time;durP1;ratioP1;P1;durP2;ratioP2;P2;SDS_P1;SDS_P2;PMS_P1;PMS_P2;Temp;Humidity;BMP_temperature;BMP_pressure;BME280_temperature;BME280_humidity;BME280_pressure;Samples;Min_cycle;Max_cycle;Signal;HPM_P1;HPM_P2
2023/02/17 00:00:12;;;;;;;12.55;7.65;;;;;;;;;;5044978;28;20025;-82
2023/02/17 00:02:38;;;;;;;13.27;7.53;;;10.50;99.90;;;;;;5040560;28;20025;-84
2023/02/17 00:05:05;;;;;;;12.43;7.78;;;10.50;99.90;;;;;;5040387;28;20557;-79
2023/02/17 00:07:34;;;;;;;13.75;8.10;;;10.40;99.90;;;;;;5044942;28;20039;-87
2023/02/17 00:10:00;;;;;;;16.55;7.70;;;10.40;99.90;;;;;;5041336;28;20060;-84
2023/02/17 00:12:26;;;;;;;15.50;8.40;;;10.40;99.90;;;;;;5046078;28;20025;-85
2023/02/17 00:14:52;;;;;;;12.60;7.35;;;;;;;;;;5053507;28;20166;-86
2023/02/17 00:17:17;;;;;;;14.90;8.20;;;10.50;99.90;;;;;;5047960;28;20025;-84
2023/02/17 00:19:43;;;;;;;14.15;8.18;;;10.40;99.90;;;;;;5046058;28;20029;-87
2023/02/17 00:22:08;;;;;;;14.43;8.80;;;10.60;99.90;;;;;;5048280;28;20074;-83
2023/02/17 00:24:38;;;;;;;14.65;7.78;;;10.50;99.90;;;;;;5047702;28;20032;-80
2023/02/17 00:27:04;;;;;;;14.98;7.78;;;10.50;99.90;;;;;;5050414;28;20068;-88
2023/02/17 00:29:30;;;;;;;13.68;8.32;;;10.50;99.90;;;;;;5047199;28;20036;-84
2023/02/17 00:31:56;;;;;;;14.98;8.40;;;10.40;99.90;;;;;;5061717;28;21637;-86
2023/02/17 00:34:22;;;;;;;13.57;8.13;;;10.50;99.90;;;;;;5048938;28;20041;-84
2023/02/17 00:36:48;;;;;;;14.05;7.80;;;10.30;99.90;;;;;;5048047;28;20078;-80
2023/02/17 00:39:15;;;;;;;13.77;7.35;;;10.40;99.90;;;;;;5049766;28;20048;-88
2023/02/17 00:41:41;;;;;;;12.18;7.50;;;10.40;99.90;;;;;;5044388;28;20029;-85
2023/02/17 00:44:11;;;;;;;11.70;6.70;;;11.00;99.90;;;;;;5046797;28;20255;-84
2023/02/17 00:46:37;;;;;;;13.00;7.03;;;10.60;99.90;;;;;;5046268;28;20064;-83
2023/02/17 00:49:02;;;;;;;13.90;7.05;;;10.50;99.90;;;;;;5044284;28;20489;-83
2023/02/17 00:51:28;;;;;;;12.18;6.25;;;10.60;99.90;;;;;;5048270;28;20037;-82
2023/02/17 00:53:53;;;;;;;13.05;5.85;;;10.60;99.90;;;;;;5048827;28;20029;-83
2023/02/17 00:56:19;;;;;;;13.60;7.25;;;10.70;99.90;;;;;;5026624;28;20033;-86
2023/02/17 00:58:45;;;;;;;13.02;6.47;;;10.70;99.90;;;;;;5048231;28;20385;-85
2023/02/17 01:01:11;;;;;;;16.70;7.05;;;10.70;99.90;;;;;;5049889;28;20059;-86
2023/02/17 01:03:39;;;;;;;12.55;6.68;;;10.70;99.90;;;;;;5052233;28;20036;-84
2023/02/17 01:06:08;;;;;;;10.23;6.07;;;10.70;99.90;;;;;;5042471;28;20049;-85
2023/02/17 01:08:33;;;;;;;11.40;7.15;;;10.60;99.90;;;;;;5048112;28;20321;-85
2023/02/17 01:10:59;;;;;;;13.63;6.32;;;;;;;;;;5042058;28;20040;-85
2023/02/17 01:13:25;;;;;;;12.80;6.07;;;10.60;99.90;;;;;;5049709;28;20060;-82
2023/02/17 01:15:52;;;;;;;14.38;6.95;;;10.60;99.90;;;;;;5045551;28;20022;-84
2023/02/17 01:18:20;;;;;;;11.82;6.07;;;10.60;99.90;;;;;;5053806;28;20112;-84
2023/02/17 01:20:46;;;;;;;10.73;6.00;;;10.60;99.90;;;;;;5054560;28;20023;-87
2023/02/17 01:23:13;;;;;;;17.30;6.80;;;10.60;99.90;;;;;;5046967;28;20111;-84
2023/02/17 01:25:41;;;;;;;11.30;6.65;;;12.70;99.90;;;;;;5046702;28;20020;-82
2023/02/17 01:28:09;;;;;;;13.35;6.30;;;10.60;99.90;;;;;;5040886;28;20092;-86
2023/02/17 01:30:35;;;;;;;12.48;5.97;;;10.50;99.90;;;;;;5047849;28;20029;-83
2023/02/17 01:33:01;;;;;;;17.45;6.03;;;10.60;99.90;;;;;;5043441;28;20040;-84
2023/02/17 01:35:27;;;;;;;12.82;6.60;;;;;;;;;;5048465;28;20029;-87
2023/02/17 01:37:52;;;;;;;15.85;7.80;;;10.50;99.90;;;;;;5042159;28;20026;-83
2023/02/17 01:40:18;;;;;;;12.25;6.88;;;;;;;;;;5043704;28;20050;-84
2023/02/17 01:42:44;;;;;;;14.93;6.60;;;10.50;99.90;;;;;;5043000;28;20483;-86
2023/02/17 01:45:19;;;;;;;13.70;6.35;;;10.50;99.90;;;;;;5045681;28;20059;-81
2023/02/17 01:47:49;;;;;;;13.55;6.63;;;10.50;99.90;;;;;;5043191;28;20033;-84
2023/02/17 01:50:16;;;;;;;13.52;6.93;;;10.50;99.90;;;;;;5044042;28;20136;-84
2023/02/17 01:52:42;;;;;;;15.52;7.00;;;10.50;99.90;;;;;;5036274;28;20033;-84
2023/02/17 01:55:11;;;;;;;15.55;7.18;;;10.50;99.90;;;;;;5047560;28;20025;-82
2023/02/17 01:57:39;;;;;;;14.00;6.75;;;10.50;99.90;;;;;;5039514;28;20029;-86
2023/02/17 02:00:06;;;;;;;11.38;6.78;;;10.40;99.90;;;;;;5040863;28;20546;-79
2023/02/17 02:02:32;;;;;;;16.13;6.70;;;10.40;99.90;;;;;;5047818;28;20378;-81
2023/02/17 02:04:59;;;;;;;12.05;6.57;;;10.40;99.90;;;;;;5043938;28;20426;-79
2023/02/17 02:07:31;;;;;;;12.98;7.18;;;12.70;99.90;;;;;;5045499;28;20035;-80
2023/02/17 02:09:57;;;;;;;10.85;6.40;;;10.40;99.90;;;;;;5048335;28;20026;-84
2023/02/17 02:12:42;;;;;;;14.77;6.68;;;10.50;99.90;;;;;;5046187;28;20100;-81
2023/02/17 02:15:16;;;;;;;11.73;6.25;;;10.50;99.90;;;;;;5045599;28;20132;-81
2023/02/17 02:17:58;;;;;;;12.25;6.78;;;10.60;99.90;;;;;;5029180;28;20030;-84
2023/02/17 02:20:38;;;;;;;12.50;6.43;;;10.60;99.90;;;;;;5044709;28;20024;-83
2023/02/17 02:23:10;;;;;;;15.43;6.72;;;10.60;99.90;;;;;;5044380;28;20021;-82
2023/02/17 02:26:21;;;;;;;11.68;6.65;;;10.40;99.90;;;;;;5046047;28;20033;-84
2023/02/17 02:29:23;;;;;;;16.73;7.57;;;10.40;99.90;;;;;;5044230;28;20036;-81
2023/02/17 02:32:04;;;;;;;14.52;7.10;;;10.30;99.90;;;;;;5044057;28;20071;-81
2023/02/17 02:34:43;;;;;;;12.05;7.18;;;10.30;99.90;;;;;;5039930;28;20043;-78
2023/02/17 02:37:19;;;;;;;11.93;7.03;;;10.30;99.90;;;;;;5037728;28;20033;-85
2023/02/17 02:39:54;;;;;;;15.63;6.97;;;10.30;99.90;;;;;;5044993;28;20029;-85
2023/02/17 02:42:24;;;;;;;15.57;7.30;;;10.10;99.90;;;;;;5032364;28;20025;-86
2023/02/17 02:44:49;;;;;;;10.70;7.50;;;10.30;99.90;;;;;;5033599;28;20036;-86
2023/02/17 02:47:40;;;;;;;11.98;7.07;;;12.30;99.90;;;;;;5038753;28;20071;-86
2023/02/17 02:50:07;;;;;;;13.48;7.30;;;10.20;99.90;;;;;;5036621;28;20033;-83
2023/02/17 02:52:48;;;;;;;15.15;7.32;;;10.10;99.90;;;;;;5037066;28;20370;-85
2023/02/17 02:55:19;;;;;;;14.40;7.18;;;10.10;99.90;;;;;;5039374;28;20036;-84
2023/02/17 02:57:56;;;;;;;13.13;7.30;;;10.10;99.90;;;;;;5034689;28;20068;-84
2023/02/17 03:00:30;;;;;;;13.82;7.35;;;10.10;99.90;;;;;;5039338;28;20028;-87
2023/02/17 03:03:26;;;;;;;11.88;7.28;;;10.10;99.90;;;;;;5029889;28;20025;-82
2023/02/17 03:06:03;;;;;;;11.57;7.20;;;10.10;99.90;;;;;;5032472;28;20140;-78
2023/02/17 03:08:47;;;;;;;14.02;8.10;;;10.00;99.90;;;;;;5036698;28;20448;-85
2023/02/17 03:11:14;;;;;;;12.40;7.72;;;10.00;99.90;;;;;;5031163;28;20048;-83
2023/02/17 03:13:39;;;;;;;13.27;7.88;;;10.00;99.90;;;;;;5035987;28;20493;-80
2023/02/17 03:16:07;;;;;;;12.73;7.60;;;10.00;99.90;;;;;;5035065;28;20030;-85
2023/02/17 03:18:34;;;;;;;12.52;6.47;;;10.10;99.90;;;;;;5033300;28;20035;-81
2023/02/17 03:21:13;;;;;;;12.50;6.82;;;10.00;99.90;;;;;;5042982;28;20033;-84
2023/02/17 03:23:38;;;;;;;14.55;7.07;;;10.00;99.90;;;;;;5045747;28;20040;-87
2023/02/17 03:26:04;;;;;;;13.23;6.85;;;10.00;99.90;;;;;;5040672;28;20390;-81
2023/02/17 03:28:30;;;;;;;12.82;7.30;;;9.90;99.90;;;;;;5046498;28;20448;-83
2023/02/17 03:30:56;;;;;;;12.95;6.78;;;9.90;99.90;;;;;;5046478;28;20029;-87
2023/02/17 03:33:21;;;;;;;11.63;7.18;;;10.00;99.90;;;;;;5041367;28;20071;-85
2023/02/17 03:35:47;;;;;;;12.90;6.47;;;10.00;99.90;;;;;;5043990;28;20037;-87
2023/02/17 03:38:13;;;;;;;12.50;6.82;;;;;;;;;;5047520;28;20059;-84
2023/02/17 03:40:39;;;;;;;11.38;7.03;;;9.90;99.90;;;;;;5047108;28;20508;-82
2023/02/17 03:43:05;;;;;;;10.93;7.28;;;;;;;;;;5045027;28;20029;-83
2023/02/17 03:45:31;;;;;;;11.50;7.10;;;9.90;99.90;;;;;;5044033;28;20040;-81
2023/02/17 03:47:57;;;;;;;11.73;6.35;;;;;;;;;;5041755;28;20116;-85
2023/02/17 03:50:22;;;;;;;9.23;6.22;;;9.90;99.90;;;;;;5049722;28;20029;-86
2023/02/17 03:52:48;;;;;;;10.45;6.05;;;;;;;;;;5046700;28;20462;-81
2023/02/17 03:55:16;;;;;;;7.35;5.70;;;10.00;99.90;;;;;;5051713;28;20036;-83
2023/02/17 03:57:42;;;;;;;9.02;6.28;;;10.00;99.90;;;;;;5045108;28;20033;-81
2023/02/17 04:00:08;;;;;;;9.43;6.22;;;9.90;99.90;;;;;;5043130;28;20032;-81
2023/02/17 04:02:37;;;;;;;8.10;5.72;;;9.80;99.90;;;;;;5065374;28;20024;-80
2023/02/17 04:05:06;;;;;;;8.00;5.60;;;9.80;99.90;;;;;;5047891;28;20025;-87
2023/02/17 04:07:31;;;;;;;7.63;5.63;;;9.90;99.90;;;;;;5046212;28;20040;-87
2023/02/17 04:09:57;;;;;;;7.85;5.72;;;;;;;;;;5047962;28;20033;-85
2023/02/17 04:12:26;;;;;;;10.27;5.88;;;10.00;99.90;;;;;;5056929;28;20045;-83
2023/02/17 04:14:54;;;;;;;11.02;5.80;;;9.90;99.90;;;;;;5050575;28;20092;-83
2023/02/17 04:17:23;;;;;;;8.75;5.43;;;8.30;99.90;;;;;;5053379;28;20120;-85
2023/02/17 04:19:48;;;;;;;10.13;7.07;;;9.90;99.90;;;;;;5054861;28;20120;-83
2023/02/17 04:22:14;;;;;;;12.27;6.85;;;9.80;99.90;;;;;;5053649;28;20080;-82
2023/02/17 04:24:40;;;;;;;8.10;5.80;;;;;;;;;;5046785;28;20029;-83
2023/02/17 04:27:06;;;;;;;10.00;6.22;;;9.80;99.90;;;;;;5055585;28;20048;-83
2023/02/17 04:29:32;;;;;;;8.30;6.05;;;;;;;;;;5047090;28;20283;-83
2023/02/17 04:31:58;;;;;;;9.10;5.60;;;9.90;99.90;;;;;;5051146;28;20021;-83
2023/02/17 04:34:24;;;;;;;8.38;6.03;;;10.10;99.90;;;;;;5055077;28;20076;-83
2023/02/17 04:36:50;;;;;;;7.50;6.07;;;;;;;;;;5046408;28;20622;-81
2023/02/17 04:39:15;;;;;;;8.90;5.40;;;9.90;99.90;;;;;;5045530;28;20080;-85
2023/02/17 04:41:41;;;;;;;7.93;5.22;;;;;;;;;;5048896;28;20027;-84
2023/02/17 04:44:07;;;;;;;7.82;5.85;;;10.00;99.90;;;;;;5048914;28;20033;-86
2023/02/17 04:46:33;;;;;;;10.18;5.60;;;10.20;99.90;;;;;;5043570;28;20025;-84
2023/02/17 04:48:59;;;;;;;10.38;6.20;;;;;;;;;;5046571;28;20543;-83
2023/02/17 04:51:25;;;;;;;11.13;6.00;;;;;;;;;;5046757;28;20086;-84
2023/02/17 04:53:51;;;;;;;10.55;5.53;;;;;;;;;;5048119;28;20087;-83
2023/02/17 04:56:16;;;;;;;9.23;6.68;;;;;;;;;;5051276;28;20032;-85
2023/02/17 04:58:43;;;;;;;7.82;5.68;;;;;;;;;;5056492;28;20458;-85
2023/02/17 05:01:08;;;;;;;11.50;7.45;;;10.00;99.90;;;;;;5044792;28;20028;-82
2023/02/17 05:03:34;;;;;;;8.68;5.65;;;;;;;;;;5052139;28;20056;-85
2023/02/17 05:06:00;;;;;;;8.00;5.95;;;10.00;99.90;;;;;;5052592;28;20033;-85
2023/02/17 05:08:25;;;;;;;8.57;5.65;;;10.00;99.90;;;;;;5054259;28;20481;-81
2023/02/17 05:10:51;;;;;;;8.20;5.75;;;;;;;;;;5052508;28;20062;-84
2023/02/17 05:13:18;;;;;;;6.55;5.05;;;9.90;99.90;;;;;;5057693;28;20028;-86
2023/02/17 05:15:45;;;;;;;7.78;5.40;;;10.00;99.90;;;;;;5056075;28;20576;-83
2023/02/17 05:18:11;;;;;;;7.88;5.15;;;11.90;99.90;;;;;;5052736;28;20029;-85
2023/02/17 05:20:37;;;;;;;8.15;5.25;;;10.20;99.90;;;;;;5051460;28;20030;-81
2023/02/17 05:23:02;;;;;;;7.30;5.40;;;10.20;99.90;;;;;;5062759;28;20033;-85
2023/02/17 05:25:29;;;;;;;7.32;5.40;;;;;;;;;;5058310;28;20017;-84
2023/02/17 05:27:54;;;;;;;6.97;5.05;;;10.10;99.90;;;;;;5051605;28;20339;-82
2023/02/17 05:30:20;;;;;;;7.57;5.35;;;10.10;99.90;;;;;;5056557;28;20040;-83
2023/02/17 05:32:46;;;;;;;7.97;5.43;;;;;;;;;;5050167;28;20091;-84
2023/02/17 05:35:12;;;;;;;8.85;5.70;;;;;;;;;;5053092;28;20093;-83
2023/02/17 05:37:38;;;;;;;8.52;5.65;;;10.10;99.90;;;;;;5051909;28;20033;-81
2023/02/17 05:40:04;;;;;;;9.32;6.30;;;10.00;99.90;;;;;;5060583;28;20074;-85
2023/02/17 05:42:30;;;;;;;8.40;5.82;;;10.00;99.90;;;;;;5054803;28;20032;-88
2023/02/17 05:44:56;;;;;;;8.32;5.32;;;;;;;;;;5050064;28;20474;-83
2023/02/17 05:47:22;;;;;;;7.78;5.30;;;;;;;;;;5055007;28;20370;-86
2023/02/17 05:49:48;;;;;;;8.52;5.75;;;10.00;99.90;;;;;;5048482;28;20405;-84
2023/02/17 05:52:13;;;;;;;11.07;6.10;;;10.40;99.90;;;;;;5050432;28;20021;-86
2023/02/17 05:54:39;;;;;;;11.23;6.25;;;10.00;99.90;;;;;;5054588;28;20061;-86
2023/02/17 05:57:05;;;;;;;9.52;5.63;;;;;;;;;;5056443;28;20051;-86
2023/02/17 05:59:31;;;;;;;10.40;5.53;;;9.90;99.90;;;;;;5052583;28;20025;-87
2023/02/17 06:01:57;;;;;;;11.25;5.40;;;;;;;;;;5052011;28;20093;-86
2023/02/17 06:04:22;;;;;;;8.20;5.15;;;10.00;99.90;;;;;;5048856;28;20024;-85
2023/02/17 06:06:48;;;;;;;8.55;5.35;;;11.70;99.90;;;;;;5051827;28;20030;-87
2023/02/17 06:09:14;;;;;;;8.13;5.35;;;;;;;;;;5042284;28;20056;-86
2023/02/17 06:11:40;;;;;;;7.63;5.00;;;;;;;;;;5048500;28;20131;-86
2023/02/17 06:14:05;;;;;;;6.93;5.30;;;10.00;99.90;;;;;;5049360;28;20052;-86
2023/02/17 06:16:31;;;;;;;7.30;5.25;;;10.60;99.90;;;;;;5051354;28;20082;-85
2023/02/17 06:18:58;;;;;;;8.30;5.22;;;;;;;;;;5055837;28;20440;-85
2023/02/17 06:21:24;;;;;;;6.97;5.03;;;10.00;99.90;;;;;;5055226;28;20025;-84
2023/02/17 06:23:50;;;;;;;12.43;5.40;;;;;;;;;;5059315;28;20373;-87
2023/02/17 06:26:17;;;;;;;8.93;5.35;;;;;;;;;;5058817;28;20027;-87
2023/02/17 06:28:43;;;;;;;15.45;5.57;;;;;;;;;;5053749;28;20120;-87
2023/02/17 06:31:09;;;;;;;8.15;5.63;;;9.90;99.90;;;;;;5058590;28;20028;-85
2023/02/17 06:33:35;;;;;;;8.50;5.70;;;;;;;;;;5048267;28;20033;-83
2023/02/17 06:36:01;;;;;;;8.98;5.30;;;9.90;99.90;;;;;;5049333;28;20030;-87
2023/02/17 06:38:27;;;;;;;7.68;5.25;;;;;;;;;;5053049;28;20033;-85
2023/02/17 06:40:53;;;;;;;8.98;5.90;;;9.90;99.90;;;;;;5054517;28;20028;-87
2023/02/17 06:43:19;;;;;;;12.65;5.10;;;9.80;99.90;;;;;;5052531;28;20032;-85
2023/02/17 06:45:45;;;;;;;7.07;5.18;;;;;;;;;;5052708;28;20029;-85
2023/02/17 06:48:11;;;;;;;7.93;5.40;;;;;;;;;;5052917;28;20036;-88
2023/02/17 06:50:37;;;;;;;7.82;5.25;;;9.90;99.90;;;;;;5056455;28;20132;-87
2023/02/17 06:53:03;;;;;;;7.78;4.72;;;;;;;;;;5057147;28;20033;-86
2023/02/17 06:55:29;;;;;;;7.60;4.80;;;;;;;;;;5053207;28;20037;-85
2023/02/17 06:57:55;;;;;;;7.28;4.53;;;9.90;99.90;;;;;;5053929;28;20096;-82
2023/02/17 07:00:21;;;;;;;8.00;5.05;;;9.90;99.90;;;;;;5056235;28;20032;-84
2023/02/17 07:02:47;;;;;;;8.50;5.10;;;;;;;;;;5052138;28;20021;-85
2023/02/17 07:05:13;;;;;;;8.98;4.85;;;;;;;;;;5054390;28;20101;-85
2023/02/17 07:07:39;;;;;;;7.35;4.78;;;;;;;;;;5053911;28;20057;-86
2023/02/17 07:10:06;;;;;;;6.85;4.43;;;9.90;99.90;;;;;;5051431;28;20035;-84
2023/02/17 07:12:32;;;;;;;7.07;4.72;;;;;;;;;;5055397;28;20501;-85
2023/02/17 07:14:58;;;;;;;9.05;4.95;;;;;;;;;;5054989;28;20041;-88
2023/02/17 07:17:24;;;;;;;6.57;4.70;;;;;;;;;;5054816;28;20025;-86
2023/02/17 07:19:49;;;;;;;5.25;3.78;;;10.00;99.90;;;;;;5053885;28;20049;-83
2023/02/17 07:22:15;;;;;;;5.35;4.03;;;;;;;;;;5058298;28;20060;-86
2023/02/17 07:24:41;;;;;;;6.75;4.72;;;10.00;99.90;;;;;;5056036;28;20059;-84
2023/02/17 07:27:07;;;;;;;6.25;4.00;;;;;;;;;;5048983;28;20029;-86
2023/02/17 07:29:33;;;;;;;8.00;4.75;;;9.90;99.90;;;;;;5058528;28;20022;-87
2023/02/17 07:31:59;;;;;;;7.22;4.57;;;;;;;;;;5059025;28;20082;-87
2023/02/17 07:34:25;;;;;;;6.60;4.93;;;10.00;99.90;;;;;;5058250;28;20029;-87
2023/02/17 07:36:50;;;;;;;6.68;4.90;;;9.90;99.90;;;;;;5053715;28;20035;-85
2023/02/17 07:39:17;;;;;;;7.43;4.32;;;10.10;99.90;;;;;;5051784;28;20103;-87
2023/02/17 07:41:43;;;;;;;6.60;4.65;;;10.20;99.90;;;;;;5053525;28;20028;-88
2023/02/17 07:44:09;;;;;;;6.38;4.80;;;;;;;;;;5054946;28;20497;-87
2023/02/17 07:46:35;;;;;;;5.88;4.50;;;10.00;99.90;;;;;;5051761;28;20064;-88
2023/02/17 07:49:01;;;;;;;6.07;4.63;;;;;;;;;;5053892;28;20037;-87
2023/02/17 07:51:27;;;;;;;7.10;4.40;;;;;;;;;;5059336;28;20022;-84
2023/02/17 07:53:53;;;;;;;5.95;4.32;;;;;;;;;;5060145;28;20029;-84
2023/02/17 07:56:22;;;;;;;8.13;4.43;;;10.10;99.90;;;;;;5062438;28;20032;-87
2023/02/17 07:58:48;;;;;;;6.25;4.07;;;;;;;;;;5066388;28;20033;-86
2023/02/17 08:01:19;;;;;;;8.07;4.70;;;10.20;99.90;;;;;;5065879;28;20056;-87
2023/02/17 08:03:45;;;;;;;5.40;4.00;;;10.20;99.90;;;;;;5058503;28;20028;-85
2023/02/17 08:06:17;;;;;;;5.72;4.07;;;10.30;99.90;;;;;;5054453;28;20048;-83
2023/02/17 08:14:13;;;;;;;5.35;3.72;;;;;;;;;;5052799;28;20051;-84
2023/02/17 08:16:39;;;;;;;6.07;3.63;;;;;;;;;;5054394;28;20124;-83
2023/02/17 08:19:05;;;;;;;5.97;4.10;;;;;;;;;;5051100;28;20022;-86
2023/02/17 08:21:31;;;;;;;5.63;3.88;;;10.30;99.90;;;;;;5055102;28;20116;-84
2023/02/17 08:23:57;;;;;;;4.97;3.65;;;;;;;;;;5057932;28;20040;-85
2023/02/17 08:26:23;;;;;;;5.00;3.33;;;10.30;99.90;;;;;;5054351;28;20033;-83
2023/02/17 08:28:49;;;;;;;4.85;3.40;;;;;;;;;;5057911;28;20165;-83
2023/02/17 08:31:21;;;;;;;4.93;3.70;;;10.30;99.90;;;;;;5057202;28;20116;-85
2023/02/17 08:33:47;;;;;;;4.72;3.63;;;;;;;;;;5048011;28;20698;-85
2023/02/17 08:36:13;;;;;;;5.95;4.22;;;10.30;99.90;;;;;;5066497;28;20029;-85
2023/02/17 08:38:39;;;;;;;5.55;4.18;;;10.30;99.90;;;;;;5070026;28;20033;-83
2023/02/17 08:41:17;;;;;;;6.40;4.22;;;10.40;99.90;;;;;;5071413;28;20029;-88
2023/02/17 08:43:43;;;;;;;4.65;3.72;;;10.30;99.90;;;;;;5072382;28;20037;-87
2023/02/17 08:46:10;;;;;;;6.75;3.90;;;10.40;99.90;;;;;;5069306;28;20059;-82
2023/02/17 08:48:36;;;;;;;7.63;3.72;;;;;;;;;;5045524;28;20101;-85
2023/02/17 08:51:03;;;;;;;5.85;3.65;;;10.30;99.90;;;;;;5060981;28;20029;-84
2023/02/17 08:53:29;;;;;;;6.00;4.07;;;;;;;;;;5062191;28;20116;-84
2023/02/17 08:55:56;;;;;;;7.10;4.78;;;10.30;99.90;;;;;;5044576;28;20030;-83
2023/02/17 08:58:22;;;;;;;6.80;4.57;;;;;;;;;;5059929;28;20020;-83
2023/02/17 09:00:48;;;;;;;6.70;4.82;;;;;;;;;;5062372;28;20021;-83
2023/02/17 09:03:14;;;;;;;7.80;4.25;;;10.20;99.90;;;;;;5062557;28;20017;-85
2023/02/17 09:05:40;;;;;;;5.90;4.20;;;;;;;;;;5062919;28;20021;-84
2023/02/17 09:08:06;;;;;;;7.53;4.53;;;;;;;;;;5062754;28;20032;-85
2023/02/17 09:10:32;;;;;;;7.03;3.90;;;;;;;;;;5052612;28;20025;-83
2023/02/17 09:12:58;;;;;;;7.70;4.70;;;;;;;;;;5060766;28;20445;-80
2023/02/17 09:15:23;;;;;;;8.07;4.97;;;10.40;99.90;;;;;;5058116;28;20462;-81
2023/02/17 09:17:49;;;;;;;7.18;4.50;;;;;;;;;;5038602;28;20061;-83
2023/02/17 09:20:18;;;;;;;6.32;3.78;;;;;;;;;;5038947;28;20124;-83
2023/02/17 09:22:43;;;;;;;5.65;4.50;;;10.30;99.90;;;;;;5049071;28;20021;-82
2023/02/17 09:25:09;;;;;;;6.38;4.43;;;10.30;99.90;;;;;;5054529;28;20546;-85
2023/02/17 09:27:35;;;;;;;6.95;4.28;;;;;;;;;;5059223;28;20804;-85
2023/02/17 09:30:01;;;;;;;5.85;4.18;;;;;;;;;;5059949;28;20036;-87
2023/02/17 09:32:27;;;;;;;6.97;4.47;;;10.40;99.90;;;;;;5052534;28;20029;-82
2023/02/17 09:34:53;;;;;;;7.63;4.10;;;10.40;99.90;;;;;;5052692;28;20076;-84
2023/02/17 09:37:20;;;;;;;7.20;4.10;;;10.40;99.90;;;;;;5045338;28;20025;-83
2023/02/17 09:39:46;;;;;;;5.72;3.55;;;11.30;99.90;;;;;;5054017;28;20029;-84
2023/02/17 09:42:21;;;;;;;5.00;3.60;;;10.60;99.90;;;;;;5038541;28;20485;-86
2023/02/17 09:45:02;;;;;;;5.78;3.65;;;10.50;99.90;;;;;;5046739;28;20029;-85
2023/02/17 09:47:42;;;;;;;6.05;3.72;;;10.50;99.90;;;;;;5047773;28;20469;-83
2023/02/17 09:50:33;;;;;;;5.45;3.47;;;10.40;99.90;;;;;;5058290;28;20548;-85
2023/02/17 09:53:08;;;;;;;7.65;4.50;;;10.40;99.90;;;;;;5059318;28;20024;-85
2023/02/17 09:55:41;;;;;;;6.57;4.30;;;10.50;99.90;;;;;;5062076;28;20028;-87
2023/02/17 09:58:25;;;;;;;6.45;4.40;;;10.00;99.90;;;;;;5061003;28;20033;-84
2023/02/17 10:01:01;;;;;;;5.63;3.72;;;10.50;99.90;;;;;;5043620;28;20029;-86
2023/02/17 10:03:43;;;;;;;5.75;3.55;;;10.50;99.90;;;;;;5059162;28;20029;-88
2023/02/17 10:06:20;;;;;;;5.32;3.72;;;10.50;99.90;;;;;;5059667;28;20025;-83
2023/02/17 10:08:58;;;;;;;6.88;3.70;;;10.60;99.90;;;;;;5058186;28;20044;-84
2023/02/17 10:12:13;;;;;;;5.38;3.60;;;10.70;99.90;;;;;;5059439;28;20052;-83
2023/02/17 10:15:22;;;;;;;4.53;3.17;;;10.80;99.90;;;;;;5036903;28;20035;-87
2023/02/17 10:17:51;;;;;;;3.97;3.10;;;10.80;99.90;;;;;;5026337;28;20040;-83
2023/02/17 10:20:24;;;;;;;4.32;3.30;;;10.80;99.90;;;;;;5058343;28;20108;-84
2023/02/17 10:23:03;;;;;;;4.57;3.15;;;10.80;99.90;;;;;;5058884;28;20101;-84
2023/02/17 10:25:50;;;;;;;5.90;3.63;;;10.80;99.90;;;;;;5058849;28;20029;-86
2023/02/17 10:28:49;;;;;;;4.50;3.40;;;10.80;99.90;;;;;;5058492;28;20035;-84
2023/02/17 10:31:35;;;;;;;5.03;3.72;;;10.80;99.90;;;;;;5052439;28;20033;-85
2023/02/17 10:34:03;;;;;;;8.05;4.32;;;10.80;99.90;;;;;;5058500;28;20033;-86
2023/02/17 10:36:55;;;;;;;6.43;3.70;;;10.90;99.90;;;;;;5057405;28;20260;-87
2023/02/17 10:39:29;;;;;;;5.38;3.88;;;10.80;99.90;;;;;;5057209;28;20093;-85
2023/02/17 10:41:55;;;;;;;5.38;3.90;;;10.80;99.90;;;;;;5057264;28;20025;-84
2023/02/17 10:44:24;;;;;;;7.57;4.00;;;10.90;99.90;;;;;;5051212;23;20136;-83
2023/02/17 10:46:52;;;;;;;4.93;3.72;;;10.90;99.90;;;;;;5044855;28;20044;-83
2023/02/17 10:49:28;;;;;;;6.28;3.90;;;10.80;99.90;;;;;;5032161;28;20500;-85
2023/02/17 10:52:00;;;;;;;5.90;3.92;;;10.90;99.90;;;;;;5034944;28;20204;-83
2023/02/17 10:54:37;;;;;;;6.47;4.20;;;10.90;99.90;;;;;;5029820;28;20490;-82
2023/02/17 10:57:07;;;;;;;7.70;4.88;;;10.80;99.90;;;;;;5029178;28;20179;-84
2023/02/17 10:59:38;;;;;;;6.45;3.97;;;10.90;99.90;;;;;;5030249;28;20026;-83
2023/02/17 11:02:16;;;;;;;;;;;10.90;99.90;;;;;;5030988;28;20034;-84
2023/02/17 11:04:43;;;;;;;8.23;4.05;;;10.90;99.90;;;;;;5030373;28;19908;-88
2023/02/17 11:07:15;;;;;;;5.65;4.15;;;10.90;99.90;;;;;;5026469;28;20025;-87
2023/02/17 11:09:56;;;;;;;8.77;5.13;;;10.90;99.90;;;;;;5028668;28;20056;-85
2023/02/17 11:12:28;;;;;;;6.43;4.45;;;10.90;99.90;;;;;;5015956;28;20032;-84
2023/02/17 11:14:55;;;;;;;6.03;4.40;;;10.90;99.90;;;;;;5033445;28;20052;-83
2023/02/17 11:17:38;;;;;;;5.85;4.25;;;10.90;99.90;;;;;;5035170;28;20018;-84
2023/02/17 11:20:28;;;;;;;7.10;4.10;;;10.90;99.90;;;;;;5047677;28;20018;-85
2023/02/17 11:23:09;;;;;;;6.28;4.18;;;11.00;99.90;;;;;;5035224;28;20033;-84
2023/02/17 11:25:36;;;;;;;8.15;4.97;;;11.10;99.90;;;;;;5037161;28;20029;-85
2023/02/17 11:28:23;;;;;;;5.03;3.85;;;11.10;99.90;;;;;;5036385;28;20048;-86
2023/02/17 11:31:01;;;;;;;6.82;4.63;;;11.10;99.90;;;;;;5016965;28;20028;-84
2023/02/17 11:33:37;;;;;;;6.57;4.10;;;11.00;99.90;;;;;;5047005;28;20487;-84
2023/02/17 11:36:04;;;;;;;6.43;4.60;;;11.00;99.90;;;;;;5036303;28;20107;-86
2023/02/17 11:38:43;;;;;;;6.13;4.60;;;11.10;99.90;;;;;;5025383;28;20112;-84
2023/02/17 11:41:09;;;;;;;9.73;5.50;;;13.00;99.90;;;;;;5038692;28;20075;-86
2023/02/17 11:43:36;;;;;;;7.85;5.30;;;11.10;99.90;;;;;;5034911;28;20045;-87
2023/02/17 11:46:09;;;;;;;6.55;4.45;;;11.10;99.90;;;;;;5030982;28;20049;-88
2023/02/17 11:48:53;;;;;;;6.18;4.40;;;11.00;99.90;;;;;;5033914;28;20041;-85
2023/02/17 11:51:28;;;;;;;13.25;6.65;;;11.00;99.90;;;;;;5028449;28;20497;-85
2023/02/17 11:54:10;;;;;;;6.53;4.63;;;11.10;99.90;;;;;;5032716;28;20056;-84
2023/02/17 11:56:38;;;;;;;7.45;4.13;;;11.20;99.90;;;;;;5026677;28;20033;-83
2023/02/17 11:59:15;;;;;;;6.07;4.60;;;11.10;99.90;;;;;;5027181;28;20675;-83
2023/02/17 12:01:47;;;;;;;12.82;7.68;;;11.10;99.90;;;;;;5024319;28;20052;-85
2023/02/17 12:04:29;;;;;;;7.03;5.20;;;11.30;99.90;;;;;;5025644;28;20033;-85
2023/02/17 12:07:20;;;;;;;11.98;7.47;;;11.20;99.90;;;;;;5028660;28;20796;-87
2023/02/17 12:09:51;;;;;;;7.38;4.90;;;11.20;99.90;;;;;;5032531;28;20029;-86
2023/02/17 12:12:46;;;;;;;7.03;4.80;;;11.20;99.90;;;;;;5048376;28;20037;-84
2023/02/17 12:15:23;;;;;;;9.23;5.88;;;11.30;99.90;;;;;;5024863;28;20034;-85
2023/02/17 12:17:51;;;;;;;7.18;4.68;;;11.30;99.90;;;;;;5037154;28;20033;-83
2023/02/17 12:20:17;;;;;;;6.25;4.10;;;;;;;;;;5034358;28;20119;-84
2023/02/17 12:23:17;;;;;;;5.78;4.40;;;11.40;99.90;;;;;;5029229;28;20026;-83
2023/02/17 12:26:02;;;;;;;6.57;4.43;;;11.40;99.90;;;;;;5033688;28;20030;-83
2023/02/17 12:29:03;;;;;;;5.60;4.40;;;11.40;99.90;;;;;;5033200;28;20053;-84
2023/02/17 12:31:41;;;;;;;6.88;4.93;;;11.40;99.90;;;;;;5037328;28;20033;-86
2023/02/17 12:34:49;;;;;;;6.65;4.35;;;11.50;99.90;;;;;;5035731;28;20028;-85
2023/02/17 12:37:23;;;;;;;6.43;4.35;;;11.40;99.90;;;;;;5020291;28;20037;-82
2023/02/17 12:39:59;;;;;;;6.90;4.57;;;11.40;99.90;;;;;;5030143;28;20142;-86
2023/02/17 12:42:39;;;;;;;6.60;4.55;;;11.40;99.90;;;;;;5028190;28;20030;-83
2023/02/17 12:45:17;;;;;;;6.43;4.47;;;11.40;99.90;;;;;;5026131;28;20201;-85
2023/02/17 12:47:58;;;;;;;7.22;4.07;;;11.40;99.90;;;;;;5026038;28;20134;-82
2023/02/17 12:50:30;;;;;;;5.90;4.35;;;11.50;99.90;;;;;;5030345;28;20031;-85
2023/02/17 12:53:04;;;;;;;8.98;5.03;;;11.50;99.90;;;;;;5033352;28;20033;-86
2023/02/17 12:55:40;;;;;;;6.43;4.25;;;11.60;99.90;;;;;;5015822;28;20041;-85
2023/02/17 12:58:17;;;;;;;5.80;4.32;;;11.60;99.90;;;;;;5034042;28;20080;-86
2023/02/17 13:00:51;;;;;;;5.88;4.20;;;11.60;99.90;;;;;;5036057;28;20037;-86
2023/02/17 13:03:17;;;;;;;6.00;3.63;;;;;;;;;;5031792;28;20131;-83
2023/02/17 13:06:01;;;;;;;7.90;4.70;;;11.70;99.90;;;;;;5026274;28;20490;-82
2023/02/17 13:39:46;;;;;;;4.50;3.35;;;;;;;;;;5034203;26;20052;-81
2023/02/17 13:42:44;;;;;;;6.57;4.35;;;11.90;99.90;;;;;;5041032;28;20034;-81
2023/02/17 13:45:47;;;;;;;4.88;3.75;;;11.90;99.90;;;;;;5043955;28;20081;-81
2023/02/17 13:48:13;;;;;;;4.82;3.22;;;;;;;;;;5054732;28;20029;-80
2023/02/17 13:50:45;;;;;;;6.35;3.72;;;;;;;;;;5057274;28;20080;-79
2023/02/17 13:53:21;;;;;;;4.95;3.78;;;;;;;;;;5055625;28;20029;-81
2023/02/17 13:55:48;;;;;;;6.47;3.85;;;;;;;;;;5052621;28;20093;-81
2023/02/17 13:58:14;;;;;;;8.75;5.13;;;;;;;;;;5055608;28;20033;-80
2023/02/17 14:00:45;;;;;;;5.20;3.53;;;;;;;;;;5055652;28;20044;-79
2023/02/17 14:03:17;;;;;;;7.63;3.97;;;;;;;;;;5052740;28;20037;-82